Time;durP1;ratioP1;P1;durP2;ratioP2;P2;SDS_P1;SDS_P2;PMS_P1;PMS_P2;Temp;Humidity;BMP_temperature;BMP_pressure;BME280_temperature;BME280_humidity;BME280_pressure;Samples;Min_cycle;Max_cycle;Signal;HPM_P1;HPM_P2
2022/06/12 00:04:41;;;;;;;7.03;6.20;;;17.90;99.90;;;;;;10277684;28;20375;-82
2022/06/12 00:10:03;;;;;;;7.20;6.45;;;18.00;99.90;;;;;;10292589;28;20407;-82
2022/06/12 00:15:26;;;;;;;6.85;6.15;;;18.00;99.90;;;;;;10249665;29;20207;-82
2022/06/12 00:20:48;;;;;;;7.88;7.03;;;17.90;99.90;;;;;;10262432;28;20231;-83
2022/06/12 00:26:11;;;;;;;8.98;7.53;;;17.90;99.90;;;;;;10271753;28;20194;-82
2022/06/12 00:31:35;;;;;;;7.32;6.60;;;17.90;99.90;;;;;;10271164;28;20234;-82
2022/06/12 00:36:57;;;;;;;9.35;7.07;;;17.90;99.90;;;;;;10261982;28;20203;-82
2022/06/12 00:42:44;;;;;;;8.88;7.45;;;17.80;99.90;;;;;;10275945;28;20206;-82
2022/06/12 00:48:13;;;;;;;8.65;7.53;;;17.70;99.90;;;;;;10275205;28;20207;-82
2022/06/12 00:53:42;;;;;;;9.18;6.97;;;17.70;99.90;;;;;;10261473;28;20262;-82
2022/06/12 00:59:11;;;;;;;9.13;7.45;;;17.60;99.90;;;;;;10261151;28;20237;-82
2022/06/12 01:10:15;;;;;;;9.10;8.20;;;17.30;99.90;;;;;;10262507;28;20198;-82
2022/06/12 01:15:41;;;;;;;8.73;7.93;;;17.30;99.90;;;;;;10274712;28;20364;-82
2022/06/12 01:21:35;;;;;;;8.60;7.80;;;17.20;99.90;;;;;;10274367;28;20227;-82
2022/06/12 01:27:34;;;;;;;7.45;6.75;;;17.10;99.90;;;;;;10260747;28;20222;-83
2022/06/12 01:33:25;;;;;;;7.90;7.20;;;17.00;99.90;;;;;;10234282;29;20307;-81
2022/06/12 01:39:10;;;;;;;8.18;7.40;;;16.90;99.90;;;;;;10220971;29;20231;-82
2022/06/12 01:44:38;;;;;;;7.50;6.65;;;16.80;99.90;;;;;;10220805;29;20501;-82
2022/06/12 01:50:08;;;;;;;8.77;7.07;;;16.70;99.90;;;;;;10220310;29;20278;-83
2022/06/12 01:55:33;;;;;;;7.30;6.60;;;16.70;99.90;;;;;;10272207;28;20206;-82
2022/06/12 02:01:25;;;;;;;6.70;6.00;;;16.60;99.90;;;;;;10259728;28;20390;-82
2022/06/12 02:07:22;;;;;;;7.75;7.05;;;16.50;99.90;;;;;;10261552;28;20210;-82
2022/06/12 02:18:59;;;;;;;8.50;6.82;;;16.30;99.90;;;;;;10281860;28;20225;-82
2022/06/12 02:24:32;;;;;;;8.18;7.18;;;16.30;99.90;;;;;;10267506;28;20277;-82
2022/06/12 02:30:00;;;;;;;7.85;7.05;;;16.20;99.90;;;;;;10302833;28;20209;-82
2022/06/12 02:35:42;;;;;;;8.35;7.47;;;16.20;99.90;;;;;;10280260;28;20206;-83
2022/06/12 02:41:18;;;;;;;9.93;6.97;;;16.10;99.90;;;;;;10266725;28;20256;-82
2022/06/12 02:46:48;;;;;;;7.18;5.90;;;16.10;99.90;;;;;;10252853;28;20281;-82
2022/06/12 02:52:29;;;;;;;7.00;6.32;;;16.10;99.90;;;;;;10293427;28;20234;-82
2022/06/12 02:57:53;;;;;;;7.60;6.90;;;16.10;99.90;;;;;;10280151;28;20229;-83
2022/06/12 03:03:34;;;;;;;8.02;5.95;;;16.10;99.90;;;;;;10265733;28;20233;-83
2022/06/12 03:08:58;;;;;;;7.55;6.85;;;16.10;99.90;;;;;;10261604;29;20231;-82
2022/06/12 03:14:22;;;;;;;7.47;6.70;;;16.00;99.90;;;;;;10265096;28;20240;-81
2022/06/12 03:19:50;;;;;;;9.38;6.75;;;15.90;99.90;;;;;;10264401;28;20233;-82
2022/06/12 03:25:51;;;;;;;8.27;6.03;;;15.80;99.90;;;;;;10266583;28;20212;-82
2022/06/12 03:31:20;;;;;;;7.60;6.13;;;15.80;99.90;;;;;;10157240;29;20252;-83
2022/06/12 03:36:49;;;;;;;8.13;6.25;;;15.70;99.90;;;;;;10157484;29;20247;-82
2022/06/12 03:42:34;;;;;;;9.43;6.03;;;15.60;99.90;;;;;;10141675;29;20235;-82
2022/06/12 03:48:09;;;;;;;7.65;5.22;;;15.70;99.90;;;;;;10143430;29;20221;-82
2022/06/12 03:53:51;;;;;;;6.72;5.07;;;15.70;99.90;;;;;;10175465;29;20219;-83
2022/06/12 04:00:03;;;;;;;6.90;4.90;;;15.70;99.90;;;;;;10130040;29;20245;-82
2022/06/12 04:05:34;;;;;;;7.15;4.45;;;15.70;99.90;;;;;;10210646;28;20256;-82
2022/06/12 04:10:56;;;;;;;8.23;4.40;;;15.70;99.90;;;;;;10236871;29;20282;-82
2022/06/12 04:16:43;;;;;;;7.65;4.35;;;15.70;99.90;;;;;;10237937;29;20506;-82
2022/06/12 04:22:09;;;;;;;6.95;4.05;;;15.80;99.90;;;;;;10238787;29;20238;-82
2022/06/12 04:27:37;;;;;;;6.18;3.97;;;15.90;99.90;;;;;;10278861;28;20267;-81
2022/06/12 04:33:21;;;;;;;6.45;3.75;;;16.00;99.90;;;;;;10235415;29;20393;-82
2022/06/12 04:38:42;;;;;;;8.13;3.25;;;16.00;99.90;;;;;;10222536;29;20574;-82
2022/06/12 04:44:06;;;;;;;3.83;3.15;;;16.10;99.90;;;;;;10235972;29;20233;-82
2022/06/12 04:49:30;;;;;;;8.50;4.10;;;16.20;99.90;;;;;;10235528;29;20460;-83
2022/06/12 04:54:52;;;;;;;7.90;4.05;;;16.20;99.90;;;;;;10268558;28;20531;-83
2022/06/12 05:00:17;;;;;;;7.68;3.92;;;16.30;99.90;;;;;;10261343;28;20441;-82
2022/06/12 05:05:40;;;;;;;7.75;3.72;;;16.30;99.90;;;;;;10275024;28;20201;-82
2022/06/12 05:11:02;;;;;;;5.60;3.45;;;16.40;99.90;;;;;;10234491;29;20385;-82
2022/06/12 05:16:55;;;;;;;9.68;3.22;;;16.50;99.90;;;;;;10224064;28;20496;-82
2022/06/12 05:22:17;;;;;;;8.48;3.70;;;16.60;99.90;;;;;;10237194;28;20238;-83
2022/06/12 05:27:39;;;;;;;8.65;3.85;;;16.70;99.90;;;;;;10279257;28;20272;-82
2022/06/12 05:33:01;;;;;;;6.55;3.42;;;16.80;99.90;;;;;;10237174;29;20203;-83
2022/06/12 05:38:24;;;;;;;10.52;4.10;;;16.90;99.90;;;;;;10220960;29;20238;-83
2022/06/12 05:43:46;;;;;;;9.75;3.65;;;17.00;99.90;;;;;;10241939;29;20205;-83
2022/06/12 05:49:09;;;;;;;7.80;3.35;;;17.10;99.90;;;;;;10244242;29;20280;-81
2022/06/12 05:54:30;;;;;;;9.13;3.15;;;17.20;99.90;;;;;;10272081;28;20239;-82
2022/06/12 05:59:51;;;;;;;7.00;3.35;;;17.40;99.90;;;;;;10268676;28;20234;-82
2022/06/12 06:05:15;;;;;;;8.77;3.22;;;17.70;99.90;;;;;;10269266;28;20198;-83
2022/06/12 06:10:38;;;;;;;10.05;3.20;;;17.90;86.00;;;;;;10241919;29;20231;-82
2022/06/12 06:15:59;;;;;;;8.15;3.22;;;18.10;1.00;;;;;;10241661;29;20208;-83
2022/06/12 06:21:21;;;;;;;7.10;2.80;;;18.20;24.80;;;;;;10254785;28;20279;-83
2022/06/12 06:26:43;;;;;;;7.07;2.55;;;18.40;27.20;;;;;;10281835;28;20190;-83
2022/06/12 06:32:07;;;;;;;10.23;2.70;;;18.70;2.00;;;;;;10259691;28;20498;-83
2022/06/12 06:37:29;;;;;;;12.48;3.03;;;19.10;1.00;;;;;;10241646;29;20196;-84
2022/06/12 06:42:50;;;;;;;9.15;2.20;;;19.60;1.00;;;;;;10240675;29;20208;-83
2022/06/12 06:48:13;;;;;;;6.95;2.22;;;20.10;1.00;;;;;;10259049;28;20200;-82
2022/06/12 06:53:35;;;;;;;9.27;2.97;;;20.70;1.00;;;;;;10263372;28;20243;-83
2022/06/12 06:58:56;;;;;;;8.95;2.00;;;21.40;1.00;;;;;;10266943;28;20231;-83
2022/06/12 07:04:17;;;;;;;9.48;2.67;;;22.00;54.80;;;;;;10266181;28;20211;-83
2022/06/12 07:09:40;;;;;;;4.05;1.80;;;22.60;51.70;;;;;;10266467;28;20282;-83
2022/06/12 07:15:03;;;;;;;6.13;1.90;;;22.80;28.20;;;;;;10266237;28;20258;-83
2022/06/12 07:20:29;;;;;;;5.20;2.20;;;23.20;1.00;;;;;;10265849;28;20219;-83
2022/06/12 07:25:55;;;;;;;8.02;2.08;;;23.60;1.00;;;;;;10272996;28;20266;-83
2022/06/12 07:31:18;;;;;;;7.25;1.80;;;23.90;1.00;;;;;;10276084;28;20439;-83
2022/06/12 07:36:42;;;;;;;4.75;1.83;;;24.40;1.00;;;;;;10250995;28;20206;-83
2022/06/12 07:42:04;;;;;;;6.03;2.20;;;24.50;1.00;;;;;;10251228;28;20440;-82
2022/06/12 07:47:27;;;;;;;12.73;2.28;;;24.60;99.90;;;;;;10264165;28;20274;-83
2022/06/12 07:52:49;;;;;;;9.68;2.20;;;24.80;13.80;;;;;;10264045;28;20270;-82
2022/06/12 07:58:10;;;;;;;6.07;1.95;;;25.10;1.00;;;;;;10265313;28;20214;-82
2022/06/12 08:03:31;;;;;;;5.68;1.67;;;25.00;1.00;;;;;;10250686;28;20553;-83
2022/06/12 08:08:53;;;;;;;4.22;1.75;;;25.30;99.90;;;;;;10243160;28;20369;-83
2022/06/12 08:14:18;;;;;;;5.97;1.73;;;25.50;99.90;;;;;;10250434;28;20203;-82
2022/06/12 08:25:24;;;;;;;6.95;1.85;;;26.20;99.90;;;;;;10290423;28;20186;-82
2022/06/12 08:30:46;;;;;;;5.88;1.70;;;26.30;99.90;;;;;;10292472;28;20219;-83
2022/06/12 08:36:10;;;;;;;5.68;1.25;;;26.40;99.90;;;;;;10263501;28;20225;-83
2022/06/12 08:41:50;;;;;;;6.57;1.75;;;26.50;99.90;;;;;;10248968;28;20234;-83
2022/06/12 08:47:34;;;;;;;4.40;1.33;;;26.90;99.90;;;;;;10250928;28;20455;-82
2022/06/12 08:53:17;;;;;;;3.20;1.10;;;27.00;96.80;;;;;;10261957;28;20231;-82
2022/06/12 08:58:43;;;;;;;5.53;2.00;;;27.10;77.00;;;;;;10275172;28;20407;-82
2022/06/12 09:04:05;;;;;;;6.07;1.98;;;27.30;49.20;;;;;;10263306;28;20207;-83
2022/06/12 09:09:38;;;;;;;5.45;1.75;;;27.50;20.20;;;;;;10263147;28;20470;-83
2022/06/12 09:15:05;;;;;;;6.32;1.80;;;27.40;1.00;;;;;;10290702;28;20203;-83
2022/06/12 09:20:40;;;;;;;5.63;1.65;;;27.60;1.00;;;;;;10288322;28;20294;-83
2022/06/12 09:26:25;;;;;;;5.15;1.73;;;27.60;2.50;;;;;;10269542;28;20202;-83
2022/06/12 09:32:00;;;;;;;9.43;2.22;;;27.90;1.00;;;;;;10268579;28;20207;-83
2022/06/12 09:43:56;;;;;;;4.78;1.92;;;28.10;1.00;;;;;;10274578;28;20207;-83
2022/06/12 09:49:36;;;;;;;2.70;1.30;;;28.40;1.00;;;;;;10260330;28;20250;-83
2022/06/12 09:55:12;;;;;;;8.30;1.98;;;28.60;1.00;;;;;;10246946;28;20279;-83
2022/06/12 10:00:39;;;;;;;3.58;1.35;;;28.50;1.00;;;;;;10274620;28;20223;-83
2022/06/12 10:06:12;;;;;;;4.22;1.83;;;28.50;1.00;;;;;;10247111;28;20199;-83
2022/06/12 10:11:48;;;;;;;5.15;1.67;;;28.50;1.00;;;;;;10236671;29;20252;-84
2022/06/12 10:17:33;;;;;;;9.60;2.40;;;28.80;1.00;;;;;;10225154;29;20521;-83
2022/06/12 10:22:54;;;;;;;7.55;1.73;;;29.00;1.00;;;;;;10235477;29;20228;-83
2022/06/12 10:28:15;;;;;;;11.90;2.13;;;29.30;1.00;;;;;;10268869;28;20544;-83
2022/06/12 10:33:49;;;;;;;9.20;2.28;;;29.10;1.00;;;;;;10267457;28;20396;-84
2022/06/12 10:39:21;;;;;;;5.93;2.05;;;28.60;1.00;;;;;;10254014;28;20242;-83
2022/06/12 10:44:52;;;;;;;4.70;1.70;;;28.70;1.00;;;;;;10280041;28;20226;-83
2022/06/12 10:50:34;;;;;;;3.95;1.50;;;29.00;1.00;;;;;;10279771;28;20239;-83
2022/06/12 10:55:57;;;;;;;7.18;2.40;;;28.70;1.00;;;;;;10239110;28;20231;-83
2022/06/12 11:01:27;;;;;;;8.43;2.33;;;27.90;1.00;;;;;;10279727;28;20219;-84
2022/06/12 11:07:15;;;;;;;6.03;1.92;;;27.40;1.00;;;;;;10265869;28;20529;-84
2022/06/12 11:13:00;;;;;;;2.90;1.33;;;26.80;1.00;;;;;;10279052;28;20237;-84
2022/06/12 11:18:41;;;;;;;7.55;1.98;;;26.90;1.00;;;;;;10265521;28;20204;-84
2022/06/12 11:24:14;;;;;;;5.60;2.00;;;27.30;1.00;;;;;;10265059;28;20207;-84
2022/06/12 11:29:59;;;;;;;5.50;2.15;;;27.00;1.00;;;;;;10299238;28;20382;-84
2022/06/12 11:35:49;;;;;;;5.93;1.90;;;27.00;1.00;;;;;;10128564;29;20434;-84
2022/06/12 11:41:35;;;;;;;6.57;2.15;;;27.90;1.00;;;;;;10156746;29;20228;-84
2022/06/12 11:47:27;;;;;;;8.32;2.63;;;27.40;1.00;;;;;;10155036;29;20215;-83
2022/06/12 11:53:12;;;;;;;5.10;1.42;;;27.00;1.00;;;;;;10145112;29;20277;-83
2022/06/12 11:58:47;;;;;;;8.18;2.10;;;27.10;1.00;;;;;;10142234;29;20422;-83
2022/06/12 12:04:32;;;;;;;3.85;1.42;;;26.60;1.00;;;;;;10141258;29;20217;-83
2022/06/12 12:10:03;;;;;;;9.20;1.95;;;26.20;1.00;;;;;;10177008;28;20250;-83
2022/06/12 12:15:30;;;;;;;7.05;2.03;;;25.80;1.00;;;;;;10274444;28;20195;-84
2022/06/12 12:20:53;;;;;;;4.75;1.63;;;25.60;1.00;;;;;;10265651;28;20273;-83
2022/06/12 12:26:21;;;;;;;5.28;1.80;;;25.40;1.00;;;;;;10285709;28;20195;-83
2022/06/12 12:31:45;;;;;;;6.93;2.25;;;25.20;1.00;;;;;;10270260;28;20253;-83
2022/06/12 12:43:03;;;;;;;6.85;2.60;;;24.30;1.00;;;;;;10275794;28;20222;-83
2022/06/12 12:48:24;;;;;;;5.40;1.80;;;24.10;9.10;;;;;;10256785;28;20224;-82
2022/06/12 12:53:45;;;;;;;6.38;2.03;;;24.20;34.00;;;;;;10269460;28;20262;-83
2022/06/12 12:59:10;;;;;;;4.93;1.38;;;24.30;34.00;;;;;;10261652;28;20222;-83
2022/06/12 13:04:34;;;;;;;6.72;2.22;;;24.60;61.30;;;;;;10261829;28;20490;-83
2022/06/12 13:10:13;;;;;;;5.75;2.38;;;24.90;51.90;;;;;;10271555;28;20264;-82
2022/06/12 13:15:59;;;;;;;6.90;2.28;;;24.90;77.30;;;;;;10247900;28;20199;-84
2022/06/12 13:22:05;;;;;;;5.70;1.90;;;25.30;63.40;;;;;;10260722;28;20540;-83
2022/06/12 13:27:32;;;;;;;6.45;1.95;;;26.00;38.80;;;;;;10266830;28;20269;-83
2022/06/12 13:32:53;;;;;;;6.90;2.28;;;26.20;16.20;;;;;;10234520;29;20204;-83
2022/06/12 13:38:50;;;;;;;9.10;2.17;;;26.50;8.20;;;;;;10234341;29;20199;-83
2022/06/12 13:44:20;;;;;;;8.00;2.25;;;26.60;2.70;;;;;;10236718;29;20211;-83
2022/06/12 13:49:45;;;;;;;8.40;2.55;;;26.30;1.00;;;;;;10234678;29;20196;-83
2022/06/12 13:55:30;;;;;;;7.90;2.40;;;25.80;1.00;;;;;;10255688;28;20203;-83
2022/06/12 14:01:19;;;;;;;3.83;1.60;;;25.60;5.40;;;;;;10260174;28;20305;-83
2022/06/12 14:06:40;;;;;;;8.88;2.30;;;25.40;15.10;;;;;;10267528;28;20215;-83
2022/06/12 14:12:02;;;;;;;4.85;1.58;;;25.10;20.60;;;;;;10281313;28;20448;-83
2022/06/12 14:17:27;;;;;;;5.50;1.92;;;24.90;26.40;;;;;;10268197;28;20254;-83
2022/06/12 14:22:51;;;;;;;7.65;2.20;;;24.60;54.90;;;;;;10282843;28;20318;-83
2022/06/12 14:28:12;;;;;;;6.50;2.40;;;24.60;74.80;;;;;;10306824;28;20211;-83
2022/06/12 14:33:38;;;;;;;8.63;2.63;;;24.30;72.90;;;;;;10253883;28;20206;-84
2022/06/12 14:39:24;;;;;;;8.50;2.45;;;24.10;99.90;;;;;;10267359;28;20199;-83
2022/06/12 14:44:45;;;;;;;8.93;3.00;;;24.00;99.90;;;;;;10266824;28;20199;-83
2022/06/12 14:50:14;;;;;;;6.63;1.98;;;23.80;99.90;;;;;;10266353;28;20314;-83
2022/06/12 14:55:37;;;;;;;7.97;2.25;;;23.60;99.90;;;;;;10268868;28;20230;-83
2022/06/12 15:01:18;;;;;;;6.65;2.35;;;23.50;99.90;;;;;;10266782;28;20428;-83
2022/06/12 15:06:40;;;;;;;6.45;2.35;;;23.50;99.90;;;;;;10266109;28;20297;-83
2022/06/12 15:12:02;;;;;;;8.10;2.67;;;23.30;99.90;;;;;;10266561;28;20274;-83
2022/06/12 15:17:23;;;;;;;7.88;2.38;;;23.20;99.90;;;;;;10279156;28;20197;-82
2022/06/12 15:22:45;;;;;;;8.55;2.40;;;23.30;99.90;;;;;;10266295;28;20234;-83
2022/06/12 15:33:49;;;;;;;5.60;1.98;;;23.80;99.90;;;;;;10267344;28;20213;-83
2022/06/12 15:39:11;;;;;;;7.00;2.05;;;23.90;99.90;;;;;;10251993;28;20207;-83
2022/06/12 15:44:33;;;;;;;4.38;1.77;;;23.90;99.90;;;;;;10265130;28;20195;-83
2022/06/12 15:49:54;;;;;;;5.25;2.40;;;23.90;99.90;;;;;;10277342;28;20202;-84
2022/06/12 15:55:17;;;;;;;6.75;1.90;;;23.90;99.90;;;;;;10263685;28;20392;-83
2022/06/12 16:00:39;;;;;;;5.90;1.80;;;23.80;99.90;;;;;;10263426;28;20234;-83
2022/06/12 16:06:00;;;;;;;6.90;2.42;;;23.80;99.90;;;;;;10259004;28;20203;-83
2022/06/12 16:11:22;;;;;;;6.35;2.40;;;23.60;99.90;;;;;;10263072;28;20205;-82
2022/06/12 16:16:43;;;;;;;9.45;2.58;;;23.40;99.90;;;;;;10278565;28;20207;-83
2022/06/12 16:22:05;;;;;;;7.18;2.25;;;23.30;99.90;;;;;;10279374;28;20302;-83
2022/06/12 16:27:26;;;;;;;7.88;2.13;;;23.10;99.90;;;;;;10296201;28;20245;-84
2022/06/12 16:32:51;;;;;;;6.28;1.67;;;23.00;99.90;;;;;;10237130;29;20439;-84
2022/06/12 16:38:14;;;;;;;5.55;2.30;;;22.90;1.00;;;;;;10210059;29;20255;-84
2022/06/12 16:43:36;;;;;;;6.43;2.42;;;22.80;1.00;;;;;;10223101;29;20321;-83
2022/06/12 16:48:57;;;;;;;4.55;2.10;;;22.70;1.00;;;;;;10252826;28;20204;-84
2022/06/12 16:54:19;;;;;;;9.38;2.35;;;22.70;1.00;;;;;;10264556;28;20258;-84
2022/06/12 16:59:41;;;;;;;8.15;2.80;;;22.40;1.00;;;;;;10221883;29;20410;-84
2022/06/12 17:05:07;;;;;;;6.45;2.25;;;22.20;1.00;;;;;;10240382;28;20381;-84
2022/06/12 17:10:33;;;;;;;8.07;2.00;;;22.00;1.00;;;;;;10275236;28;20366;-83
2022/06/12 17:15:55;;;;;;;6.57;3.05;;;21.90;73.00;;;;;;10267974;28;20207;-83
2022/06/12 17:21:16;;;;;;;7.90;2.40;;;21.60;1.00;;;;;;10298312;28;20228;-84
2022/06/12 17:26:38;;;;;;;7.47;2.45;;;21.20;83.50;;;;;;10275292;28;20194;-83
2022/06/12 17:31:59;;;;;;;18.60;3.15;;;21.00;99.90;;;;;;10267662;28;20217;-83
2022/06/12 17:37:25;;;;;;;7.35;2.67;;;20.40;1.00;;;;;;10261501;28;20259;-82
2022/06/12 17:42:46;;;;;;;7.32;3.35;;;19.90;11.80;;;;;;10260756;28;20278;-83
2022/06/12 17:48:11;;;;;;;8.48;4.00;;;19.50;16.60;;;;;;10260741;29;20198;-82
2022/06/12 17:53:32;;;;;;;9.23;3.55;;;19.20;81.20;;;;;;10247624;28;20259;-83
2022/06/12 17:58:54;;;;;;;7.75;3.47;;;19.10;88.40;;;;;;10274157;28;20506;-83
2022/06/12 18:04:15;;;;;;;9.13;4.13;;;19.20;99.90;;;;;;10261941;28;20201;-82
2022/06/12 18:09:50;;;;;;;9.57;4.45;;;19.00;57.90;;;;;;10231334;29;20369;-83
2022/06/12 18:20:53;;;;;;;7.03;3.15;;;19.00;54.00;;;;;;10239486;29;20243;-82
2022/06/12 18:26:15;;;;;;;6.82;2.80;;;18.90;40.50;;;;;;10273081;28;20205;-82
2022/06/12 18:31:40;;;;;;;8.48;3.00;;;18.90;31.40;;;;;;10270513;28;20234;-82
2022/06/12 18:37:03;;;;;;;8.63;3.30;;;19.00;13.40;;;;;;10252331;28;20223;-82
2022/06/12 18:42:30;;;;;;;11.57;3.92;;;19.00;46.10;;;;;;10283964;28;20227;-82
2022/06/12 18:47:53;;;;;;;8.75;3.90;;;18.90;54.80;;;;;;10277997;28;20267;-82
2022/06/12 18:53:15;;;;;;;8.68;4.32;;;19.00;48.30;;;;;;10286130;28;20277;-83
2022/06/12 18:58:36;;;;;;;8.30;4.20;;;18.80;20.10;;;;;;10270646;28;20214;-83
2022/06/12 19:03:58;;;;;;;9.18;4.15;;;18.60;23.60;;;;;;10277002;28;20487;-82
2022/06/12 19:09:20;;;;;;;11.73;5.93;;;18.50;12.00;;;;;;10266013;28;20199;-83
2022/06/12 19:14:41;;;;;;;10.05;5.47;;;18.40;80.80;;;;;;10293879;28;20241;-83
2022/06/12 19:20:04;;;;;;;10.50;4.60;;;18.30;95.80;;;;;;10279421;28;20218;-83
2022/06/12 19:25:26;;;;;;;12.93;5.25;;;18.10;99.90;;;;;;10268893;28;20194;-83
2022/06/12 19:30:48;;;;;;;9.05;4.50;;;18.00;99.90;;;;;;10308367;28;20202;-83
2022/06/12 19:36:09;;;;;;;8.45;4.32;;;;;;;;;;10265704;28;20274;-83
2022/06/12 19:41:31;;;;;;;8.35;4.40;;;;;;;;;;10265658;28;20222;-83
2022/06/12 19:47:10;;;;;;;8.15;4.43;;;17.70;99.90;;;;;;10278957;28;20254;-83
2022/06/12 19:52:32;;;;;;;8.88;4.72;;;17.60;99.90;;;;;;10251996;28;20247;-83
2022/06/12 19:57:54;;;;;;;8.68;3.97;;;17.70;99.90;;;;;;10277856;28;20423;-83
2022/06/12 20:03:15;;;;;;;9.05;4.45;;;17.70;99.90;;;;;;10264334;28;20549;-83
2022/06/12 20:08:36;;;;;;;11.45;5.03;;;17.60;99.90;;;;;;10277502;28;20436;-82
2022/06/12 20:13:58;;;;;;;10.40;6.30;;;17.60;99.90;;;;;;10278204;28;20521;-82
2022/06/12 20:19:19;;;;;;;10.40;6.38;;;17.50;99.90;;;;;;10264042;28;20222;-83
2022/06/12 20:24:41;;;;;;;9.88;5.65;;;17.50;99.90;;;;;;10250041;28;20202;-83
2022/06/12 20:30:03;;;;;;;12.18;6.05;;;17.40;99.90;;;;;;10293001;28;20273;-82
2022/06/12 20:35:24;;;;;;;13.15;6.80;;;17.40;99.90;;;;;;10263416;28;20213;-82
2022/06/12 20:40:51;;;;;;;12.20;7.68;;;17.30;99.90;;;;;;10262874;28;20221;-83
2022/06/12 20:46:12;;;;;;;16.15;8.10;;;17.20;99.90;;;;;;10276449;28;20207;-83
2022/06/12 20:51:34;;;;;;;11.30;6.30;;;17.10;99.90;;;;;;10248870;28;20198;-83
2022/06/12 20:56:55;;;;;;;11.98;6.80;;;17.00;99.90;;;;;;10262065;28;20556;-83
2022/06/12 21:02:17;;;;;;;10.65;6.50;;;17.10;99.90;;;;;;10262085;28;20222;-83
2022/06/12 21:07:39;;;;;;;8.73;4.82;;;17.00;99.90;;;;;;10261746;28;20265;-83
2022/06/12 21:13:00;;;;;;;11.63;5.80;;;16.90;99.90;;;;;;10277763;28;20291;-83
2022/06/12 21:18:21;;;;;;;8.05;4.70;;;16.80;99.90;;;;;;10275270;28;20198;-83
2022/06/12 21:23:46;;;;;;;12.38;6.32;;;16.70;99.90;;;;;;10290778;28;20233;-83
2022/06/12 21:29:07;;;;;;;13.85;7.82;;;16.70;99.90;;;;;;10295991;28;20206;-83
2022/06/12 21:34:28;;;;;;;16.98;9.23;;;16.60;99.90;;;;;;10274557;28;20378;-82
2022/06/12 21:39:50;;;;;;;11.73;7.85;;;16.50;99.90;;;;;;10274617;28;20207;-83
2022/06/12 21:45:14;;;;;;;12.10;6.40;;;16.50;99.90;;;;;;10277420;28;20202;-83
2022/06/12 21:50:35;;;;;;;9.57;5.72;;;16.50;99.90;;;;;;10272244;28;20206;-83
2022/06/12 21:55:56;;;;;;;11.75;6.57;;;16.50;99.90;;;;;;10215149;28;20234;-83
2022/06/12 22:01:18;;;;;;;10.20;6.07;;;16.40;99.90;;;;;;10260378;28;20437;-83
2022/06/12 22:06:39;;;;;;;12.00;6.80;;;16.40;99.90;;;;;;10259814;28;20203;-83
2022/06/12 22:12:02;;;;;;;16.83;9.20;;;16.30;99.90;;;;;;10273880;28;20215;-83
2022/06/12 22:17:23;;;;;;;17.77;9.65;;;16.40;99.90;;;;;;10260192;28;20422;-83
2022/06/12 22:22:45;;;;;;;15.73;8.00;;;16.20;99.90;;;;;;10261300;28;20233;-83
2022/06/12 22:28:06;;;;;;;17.70;8.27;;;16.20;99.90;;;;;;10275550;28;20497;-83
2022/06/12 22:33:27;;;;;;;14.25;7.82;;;16.20;99.90;;;;;;10267115;28;20280;-83
2022/06/12 22:38:49;;;;;;;15.77;7.22;;;16.20;99.90;;;;;;10267462;28;20234;-82
2022/06/12 22:44:11;;;;;;;14.10;6.78;;;16.10;99.90;;;;;;10253594;28;20236;-83
2022/06/12 22:49:32;;;;;;;10.05;6.32;;;16.00;99.90;;;;;;10253261;28;20408;-83
2022/06/12 22:54:53;;;;;;;10.68;5.95;;;15.90;99.90;;;;;;10252827;28;20264;-83
2022/06/12 23:00:18;;;;;;;10.55;6.82;;;15.80;99.90;;;;;;10240268;29;20266;-83
2022/06/12 23:05:40;;;;;;;10.07;6.43;;;15.80;99.90;;;;;;10233427;28;20224;-83
2022/06/12 23:11:01;;;;;;;13.52;7.75;;;15.70;99.90;;;;;;10276207;28;20197;-82
2022/06/12 23:16:23;;;;;;;19.77;10.35;;;15.60;99.90;;;;;;10265582;28;20205;-82
2022/06/12 23:21:44;;;;;;;16.17;9.85;;;15.50;99.90;;;;;;10265327;28;20304;-83
2022/06/12 23:27:06;;;;;;;11.10;6.68;;;15.40;99.90;;;;;;10297889;28;20201;-83
2022/06/12 23:32:27;;;;;;;7.82;5.65;;;15.30;99.90;;;;;;10267033;28;20216;-83
2022/06/12 23:37:48;;;;;;;5.65;4.68;;;15.20;99.90;;;;;;10251070;28;20232;-83
2022/06/12 23:43:10;;;;;;;8.73;5.28;;;15.20;99.90;;;;;;10251457;28;20238;-83
2022/06/12 23:48:32;;;;;;;7.95;4.75;;;15.30;99.90;;;;;;10264859;28;20194;-83
2022/06/12 23:53:54;;;;;;;4.78;4.05;;;15.40;99.90;;;;;;10251002;28;20241;-84
2022/06/12 23:59:15;;;;;;;5.03;3.70;;;15.40;99.90;;;;;;10263949;28;20207;-83
